sensor_id;sensor_type;location;lat;lon;timestamp;pressure;altitude;pressure_sealevel;temperature;humidity
76297;BME280;65104;52.994;6.552;2024-01-30T00:02:02;102612.34;;;5.38;87.94
76297;BME280;65104;52.994;6.552;2024-01-30T00:04:29;102614.41;;;5.45;88.83
76297;BME280;65104;52.994;6.552;2024-01-30T00:06:57;102615.16;;;5.42;88.76
76297;BME280;65104;52.994;6.552;2024-01-30T00:09:23;102608.97;;;5.40;88.08
76297;BME280;65104;52.994;6.552;2024-01-30T00:11:50;102608.28;;;5.44;88.21
76297;BME280;65104;52.994;6.552;2024-01-30T00:14:17;102609.94;;;5.42;87.89
76297;BME280;65104;52.994;6.552;2024-01-30T00:16:44;102609.28;;;5.48;88.26
76297;BME280;65104;52.994;6.552;2024-01-30T00:19:11;102612.94;;;5.51;88.47
76297;BME280;65104;52.994;6.552;2024-01-30T00:21:37;102607.88;;;5.56;88.12
76297;BME280;65104;52.994;6.552;2024-01-30T00:24:05;102611.19;;;5.52;88.53
76297;BME280;65104;52.994;6.552;2024-01-30T00:26:32;102606.84;;;5.52;88.49
76297;BME280;65104;52.994;6.552;2024-01-30T00:28:59;102599.75;;;5.50;87.92
76297;BME280;65104;52.994;6.552;2024-01-30T00:31:25;102590.50;;;5.58;88.21
76297;BME280;65104;52.994;6.552;2024-01-30T00:33:52;102588.59;;;5.55;87.64
76297;BME280;65104;52.994;6.552;2024-01-30T00:36:19;102582.28;;;5.50;88.65
76297;BME280;65104;52.994;6.552;2024-01-30T00:38:45;102576.22;;;5.51;88.67
76297;BME280;65104;52.994;6.552;2024-01-30T00:41:14;102586.72;;;5.51;88.00
76297;BME280;65104;52.994;6.552;2024-01-30T00:43:40;102579.84;;;5.55;88.03
76297;BME280;65104;52.994;6.552;2024-01-30T00:46:07;102577.31;;;5.57;87.53
76297;BME280;65104;52.994;6.552;2024-01-30T00:48:34;102570.91;;;5.50;88.27
76297;BME280;65104;52.994;6.552;2024-01-30T00:51:00;102582.06;;;5.44;88.55
76297;BME280;65104;52.994;6.552;2024-01-30T00:53:27;102571.47;;;5.41;88.72
76297;BME280;65104;52.994;6.552;2024-01-30T00:55:54;102566.22;;;5.41;89.05
76297;BME280;65104;52.994;6.552;2024-01-30T00:58:22;102580.03;;;5.37;88.38
76297;BME280;65104;52.994;6.552;2024-01-30T01:00:48;102577.31;;;5.36;88.48
76297;BME280;65104;52.994;6.552;2024-01-30T01:03:15;102574.06;;;5.41;88.35
76297;BME280;65104;52.994;6.552;2024-01-30T01:05:42;102572.28;;;5.40;88.42
76297;BME280;65104;52.994;6.552;2024-01-30T01:08:09;102573.88;;;5.37;88.54
76297;BME280;65104;52.994;6.552;2024-01-30T01:10:35;102569.53;;;5.37;88.89
76297;BME280;65104;52.994;6.552;2024-01-30T01:13:02;102564.03;;;5.31;88.66
76297;BME280;65104;52.994;6.552;2024-01-30T01:15:31;102570.13;;;5.30;89.02
76297;BME280;65104;52.994;6.552;2024-01-30T01:17:57;102571.84;;;5.29;88.83
76297;BME280;65104;52.994;6.552;2024-01-30T01:20:24;102570.00;;;5.27;88.75
76297;BME280;65104;52.994;6.552;2024-01-30T01:22:51;102575.28;;;5.28;89.23
76297;BME280;65104;52.994;6.552;2024-01-30T01:25:17;102571.78;;;5.28;89.46
76297;BME280;65104;52.994;6.552;2024-01-30T01:27:44;102573.53;;;5.29;88.65
76297;BME280;65104;52.994;6.552;2024-01-30T01:30:17;102564.53;;;5.43;89.12
76297;BME280;65104;52.994;6.552;2024-01-30T01:32:48;102571.97;;;5.32;88.45
76297;BME280;65104;52.994;6.552;2024-01-30T01:35:20;102566.47;;;5.26;88.54
76297;BME280;65104;52.994;6.552;2024-01-30T01:37:47;102561.41;;;5.31;88.85
76297;BME280;65104;52.994;6.552;2024-01-30T01:40:20;102562.47;;;5.36;88.28
76297;BME280;65104;52.994;6.552;2024-01-30T01:42:47;102563.53;;;5.40;89.20
76297;BME280;65104;52.994;6.552;2024-01-30T01:45:13;102565.00;;;5.33;88.12
76297;BME280;65104;52.994;6.552;2024-01-30T01:47:41;102569.47;;;5.36;89.02
76297;BME280;65104;52.994;6.552;2024-01-30T01:50:09;102553.50;;;5.29;88.14
76297;BME280;65104;52.994;6.552;2024-01-30T01:52:36;102555.28;;;5.30;88.68
76297;BME280;65104;52.994;6.552;2024-01-30T01:55:04;102553.03;;;5.40;88.59
76297;BME280;65104;52.994;6.552;2024-01-30T01:57:33;102552.91;;;5.37;88.74
76297;BME280;65104;52.994;6.552;2024-01-30T02:00:00;102547.53;;;5.33;88.75
76297;BME280;65104;52.994;6.552;2024-01-30T02:02:30;102549.97;;;5.29;89.12
76297;BME280;65104;52.994;6.552;2024-01-30T02:04:57;102540.59;;;5.34;89.54
76297;BME280;65104;52.994;6.552;2024-01-30T02:07:25;102540.69;;;5.37;88.97
76297;BME280;65104;52.994;6.552;2024-01-30T02:09:51;102538.69;;;5.31;88.99
76297;BME280;65104;52.994;6.552;2024-01-30T02:12:18;102531.81;;;5.33;88.81
76297;BME280;65104;52.994;6.552;2024-01-30T02:14:45;102534.09;;;5.47;89.00
76297;BME280;65104;52.994;6.552;2024-01-30T02:17:11;102528.94;;;5.48;88.44
76297;BME280;65104;52.994;6.552;2024-01-30T02:19:38;102528.75;;;5.44;88.96
76297;BME280;65104;52.994;6.552;2024-01-30T02:22:07;102532.13;;;5.41;88.49
76297;BME280;65104;52.994;6.552;2024-01-30T02:24:34;102524.31;;;5.43;88.42
76297;BME280;65104;52.994;6.552;2024-01-30T02:27:00;102522.47;;;5.40;88.78
76297;BME280;65104;52.994;6.552;2024-01-30T02:29:27;102521.38;;;5.35;88.28
76297;BME280;65104;52.994;6.552;2024-01-30T02:31:53;102513.44;;;5.33;89.49
76297;BME280;65104;52.994;6.552;2024-01-30T02:34:20;102521.28;;;5.32;88.95
76297;BME280;65104;52.994;6.552;2024-01-30T02:36:47;102525.09;;;5.40;88.29
76297;BME280;65104;52.994;6.552;2024-01-30T02:39:15;102523.31;;;5.39;88.33
76297;BME280;65104;52.994;6.552;2024-01-30T02:41:41;102518.00;;;5.38;88.81
76297;BME280;65104;52.994;6.552;2024-01-30T02:44:08;102516.22;;;5.37;88.75
76297;BME280;65104;52.994;6.552;2024-01-30T02:46:34;102522.16;;;5.32;88.76
76297;BME280;65104;52.994;6.552;2024-01-30T02:49:01;102517.47;;;5.46;88.71
76297;BME280;65104;52.994;6.552;2024-01-30T02:51:28;102505.97;;;5.43;88.30
76297;BME280;65104;52.994;6.552;2024-01-30T02:53:54;102506.75;;;5.40;88.76
76297;BME280;65104;52.994;6.552;2024-01-30T02:56:22;102505.19;;;5.45;88.98
76297;BME280;65104;52.994;6.552;2024-01-30T02:58:49;102496.44;;;5.45;88.37
76297;BME280;65104;52.994;6.552;2024-01-30T03:01:16;102506.84;;;5.43;88.85
76297;BME280;65104;52.994;6.552;2024-01-30T03:03:42;102487.69;;;5.44;88.17
76297;BME280;65104;52.994;6.552;2024-01-30T03:06:09;102492.84;;;5.43;88.80
76297;BME280;65104;52.994;6.552;2024-01-30T03:08:35;102495.44;;;5.41;88.96
76297;BME280;65104;52.994;6.552;2024-01-30T03:11:02;102490.81;;;5.36;88.16
76297;BME280;65104;52.994;6.552;2024-01-30T03:13:30;102487.22;;;5.32;89.33
76297;BME280;65104;52.994;6.552;2024-01-30T03:15:57;102493.41;;;5.34;89.09
76297;BME280;65104;52.994;6.552;2024-01-30T03:18:24;102490.91;;;5.37;88.93
76297;BME280;65104;52.994;6.552;2024-01-30T03:20:50;102486.72;;;5.42;88.90
76297;BME280;65104;52.994;6.552;2024-01-30T03:23:17;102480.53;;;5.40;88.08
76297;BME280;65104;52.994;6.552;2024-01-30T03:25:44;102475.16;;;5.37;89.17
76297;BME280;65104;52.994;6.552;2024-01-30T03:28:10;102476.34;;;5.45;88.54
76297;BME280;65104;52.994;6.552;2024-01-30T03:30:38;102473.09;;;5.51;88.52
76297;BME280;65104;52.994;6.552;2024-01-30T03:33:05;102480.97;;;5.51;87.86
76297;BME280;65104;52.994;6.552;2024-01-30T03:35:33;102467.84;;;5.51;88.29
76297;BME280;65104;52.994;6.552;2024-01-30T03:37:59;102470.63;;;5.55;88.27
76297;BME280;65104;52.994;6.552;2024-01-30T03:40:26;102462.94;;;5.60;87.72
76297;BME280;65104;52.994;6.552;2024-01-30T03:42:52;102448.75;;;5.55;87.85
76297;BME280;65104;52.994;6.552;2024-01-30T03:45:19;102445.19;;;5.53;88.32
76297;BME280;65104;52.994;6.552;2024-01-30T03:47:47;102449.53;;;5.52;87.95
76297;BME280;65104;52.994;6.552;2024-01-30T03:50:14;102438.28;;;5.55;88.88
76297;BME280;65104;52.994;6.552;2024-01-30T03:52:40;102446.41;;;5.63;87.65
76297;BME280;65104;52.994;6.552;2024-01-30T03:55:07;102444.03;;;5.69;88.10
76297;BME280;65104;52.994;6.552;2024-01-30T03:57:34;102441.81;;;5.80;88.22
76297;BME280;65104;52.994;6.552;2024-01-30T04:00:01;102434.84;;;5.80;87.95
76297;BME280;65104;52.994;6.552;2024-01-30T04:02:30;102437.50;;;5.82;87.34
76297;BME280;65104;52.994;6.552;2024-01-30T04:04:58;102426.22;;;5.83;86.90
76297;BME280;65104;52.994;6.552;2024-01-30T04:07:25;102428.03;;;5.85;87.44
76297;BME280;65104;52.994;6.552;2024-01-30T04:09:51;102421.78;;;5.82;86.98
76297;BME280;65104;52.994;6.552;2024-01-30T04:12:18;102428.94;;;5.86;87.61
76297;BME280;65104;52.994;6.552;2024-01-30T04:14:45;102425.53;;;5.88;86.68
76297;BME280;65104;52.994;6.552;2024-01-30T04:17:11;102428.25;;;5.91;86.60
76297;BME280;65104;52.994;6.552;2024-01-30T04:19:38;102426.56;;;5.93;87.29
76297;BME280;65104;52.994;6.552;2024-01-30T04:22:06;102427.66;;;5.98;86.32
76297;BME280;65104;52.994;6.552;2024-01-30T04:24:33;102408.50;;;6.01;86.94
76297;BME280;65104;52.994;6.552;2024-01-30T04:26:59;102415.41;;;5.97;87.10
76297;BME280;65104;52.994;6.552;2024-01-30T04:29:26;102424.16;;;5.98;86.77
76297;BME280;65104;52.994;6.552;2024-01-30T04:31:53;102423.59;;;6.07;86.66
76297;BME280;65104;52.994;6.552;2024-01-30T04:34:19;102404.28;;;6.05;86.64
76297;BME280;65104;52.994;6.552;2024-01-30T04:36:46;102409.53;;;6.05;86.68
76297;BME280;65104;52.994;6.552;2024-01-30T04:39:14;102435.16;;;6.12;86.62
76297;BME280;65104;52.994;6.552;2024-01-30T04:41:40;102415.78;;;6.08;86.50
76297;BME280;65104;52.994;6.552;2024-01-30T04:44:07;102428.84;;;6.07;86.57
76297;BME280;65104;52.994;6.552;2024-01-30T04:46:34;102422.03;;;6.12;86.53
76297;BME280;65104;52.994;6.552;2024-01-30T04:49:00;102430.63;;;6.08;86.00
76297;BME280;65104;52.994;6.552;2024-01-30T04:51:28;102422.84;;;6.11;85.63
76297;BME280;65104;52.994;6.552;2024-01-30T04:53:55;102422.03;;;6.12;85.99
76297;BME280;65104;52.994;6.552;2024-01-30T04:56:23;102420.47;;;6.17;85.70
76297;BME280;65104;52.994;6.552;2024-01-30T04:58:49;102414.88;;;6.08;85.46
76297;BME280;65104;52.994;6.552;2024-01-30T05:01:16;102393.78;;;6.05;85.86
76297;BME280;65104;52.994;6.552;2024-01-30T05:03:43;102404.28;;;6.05;85.99
76297;BME280;65104;52.994;6.552;2024-01-30T05:06:10;102395.69;;;6.09;86.66
76297;BME280;65104;52.994;6.552;2024-01-30T05:08:36;102392.28;;;6.11;85.33
76297;BME280;65104;52.994;6.552;2024-01-30T05:11:04;102385.47;;;6.16;85.74
76297;BME280;65104;52.994;6.552;2024-01-30T05:13:32;102388.81;;;6.12;85.63
76297;BME280;65104;52.994;6.552;2024-01-30T05:15:59;102391.53;;;6.15;85.26
76297;BME280;65104;52.994;6.552;2024-01-30T05:18:28;102379.19;;;6.13;85.33
76297;BME280;65104;52.994;6.552;2024-01-30T05:20:55;102399.38;;;6.14;85.30
76297;BME280;65104;52.994;6.552;2024-01-30T05:23:21;102378.47;;;6.17;86.00
76297;BME280;65104;52.994;6.552;2024-01-30T05:25:48;102386.50;;;6.22;85.95
76297;BME280;65104;52.994;6.552;2024-01-30T05:28:14;102377.91;;;6.26;85.84
76297;BME280;65104;52.994;6.552;2024-01-30T05:30:42;102377.06;;;6.27;85.68
76297;BME280;65104;52.994;6.552;2024-01-30T05:33:09;102364.19;;;6.34;84.65
76297;BME280;65104;52.994;6.552;2024-01-30T05:35:37;102358.09;;;6.35;85.23
76297;BME280;65104;52.994;6.552;2024-01-30T05:38:04;102376.66;;;6.42;85.18
76297;BME280;65104;52.994;6.552;2024-01-30T05:40:32;102374.94;;;6.42;85.15
76297;BME280;65104;52.994;6.552;2024-01-30T05:42:59;102399.56;;;6.46;84.94
76297;BME280;65104;52.994;6.552;2024-01-30T05:45:28;102381.19;;;6.46;84.24
76297;BME280;65104;52.994;6.552;2024-01-30T05:47:56;102386.34;;;6.43;84.45
76297;BME280;65104;52.994;6.552;2024-01-30T05:50:22;102384.66;;;6.45;84.35
76297;BME280;65104;52.994;6.552;2024-01-30T05:52:50;102392.56;;;6.46;84.68
76297;BME280;65104;52.994;6.552;2024-01-30T05:55:17;102386.34;;;6.43;84.83
76297;BME280;65104;52.994;6.552;2024-01-30T05:57:43;102398.94;;;6.53;84.02
76297;BME280;65104;52.994;6.552;2024-01-30T06:00:11;102391.78;;;6.49;84.50
76297;BME280;65104;52.994;6.552;2024-01-30T06:02:38;102396.25;;;6.51;84.16
76297;BME280;65104;52.994;6.552;2024-01-30T06:05:06;102394.56;;;6.53;84.04
76297;BME280;65104;52.994;6.552;2024-01-30T06:07:33;102388.63;;;6.59;84.30
76297;BME280;65104;52.994;6.552;2024-01-30T06:10:00;102390.31;;;6.57;83.83
76297;BME280;65104;52.994;6.552;2024-01-30T06:12:27;102404.66;;;6.67;84.08
76297;BME280;65104;52.994;6.552;2024-01-30T06:14:53;102403.78;;;6.68;83.95
76297;BME280;65104;52.994;6.552;2024-01-30T06:17:22;102406.34;;;6.66;83.70
76297;BME280;65104;52.994;6.552;2024-01-30T06:19:48;102397.75;;;6.70;83.21
76297;BME280;65104;52.994;6.552;2024-01-30T06:22:17;102385.47;;;6.69;84.31
76297;BME280;65104;52.994;6.552;2024-01-30T06:24:43;102382.63;;;6.63;84.75
76297;BME280;65104;52.994;6.552;2024-01-30T06:27:13;102376.72;;;6.69;84.41
76297;BME280;65104;52.994;6.552;2024-01-30T06:29:40;102372.28;;;6.68;84.37
76297;BME280;65104;52.994;6.552;2024-01-30T06:32:06;102382.88;;;6.71;84.00
76297;BME280;65104;52.994;6.552;2024-01-30T06:34:33;102369.81;;;6.72;83.79
76297;BME280;65104;52.994;6.552;2024-01-30T06:37:00;102385.56;;;6.72;83.37
76297;BME280;65104;52.994;6.552;2024-01-30T06:39:28;102380.31;;;6.72;83.85
76297;BME280;65104;52.994;6.552;2024-01-30T06:41:54;102358.31;;;6.69;83.79
76297;BME280;65104;52.994;6.552;2024-01-30T06:44:21;102365.44;;;6.73;83.73
76297;BME280;65104;52.994;6.552;2024-01-30T06:46:48;102338.28;;;6.72;84.04
76297;BME280;65104;52.994;6.552;2024-01-30T06:49:15;102348.88;;;6.75;84.62
76297;BME280;65104;52.994;6.552;2024-01-30T06:51:42;102372.63;;;6.78;84.44
76297;BME280;65104;52.994;6.552;2024-01-30T06:54:08;102365.63;;;6.79;84.10
76297;BME280;65104;52.994;6.552;2024-01-30T06:56:36;102362.00;;;6.75;84.00
76297;BME280;65104;52.994;6.552;2024-01-30T06:59:03;102356.00;;;6.79;84.40
76297;BME280;65104;52.994;6.552;2024-01-30T07:01:30;102354.34;;;6.81;84.13
76297;BME280;65104;52.994;6.552;2024-01-30T07:03:58;102352.66;;;6.83;83.44
76297;BME280;65104;52.994;6.552;2024-01-30T07:06:24;102348.22;;;6.82;84.17
76297;BME280;65104;52.994;6.552;2024-01-30T07:08:51;102356.09;;;6.82;83.79
76297;BME280;65104;52.994;6.552;2024-01-30T07:11:21;102363.16;;;6.83;84.16
76297;BME280;65104;52.994;6.552;2024-01-30T07:13:50;102367.63;;;6.86;84.28
76297;BME280;65104;52.994;6.552;2024-01-30T07:16:17;102366.72;;;6.86;83.68
76297;BME280;65104;52.994;6.552;2024-01-30T07:18:44;102347.56;;;6.90;83.68
76297;BME280;65104;52.994;6.552;2024-01-30T07:21:11;102370.69;;;7.00;83.65
76297;BME280;65104;52.994;6.552;2024-01-30T07:23:37;102385.53;;;6.99;84.04
76297;BME280;65104;52.994;6.552;2024-01-30T07:26:04;102385.59;;;7.01;84.05
76297;BME280;65104;52.994;6.552;2024-01-30T07:28:31;102399.63;;;7.01;83.77
76297;BME280;65104;52.994;6.552;2024-01-30T07:30:59;102395.88;;;6.93;84.72
76297;BME280;65104;52.994;6.552;2024-01-30T07:33:26;102396.66;;;6.91;84.97
76297;BME280;65104;52.994;6.552;2024-01-30T07:35:53;102381.06;;;6.97;84.51
76297;BME280;65104;52.994;6.552;2024-01-30T07:38:20;102379.16;;;6.91;84.70
76297;BME280;65104;52.994;6.552;2024-01-30T07:40:46;102369.75;;;6.98;84.14
76297;BME280;65104;52.994;6.552;2024-01-30T07:43:13;102382.75;;;6.95;84.73
76297;BME280;65104;52.994;6.552;2024-01-30T07:45:39;102385.59;;;7.01;84.07
76297;BME280;65104;52.994;6.552;2024-01-30T07:48:08;102380.28;;;6.99;84.31
76297;BME280;65104;52.994;6.552;2024-01-30T07:50:34;102373.31;;;7.00;84.12
76297;BME280;65104;52.994;6.552;2024-01-30T07:53:01;102377.72;;;7.01;84.68
76297;BME280;65104;52.994;6.552;2024-01-30T07:55:28;102389.03;;;6.98;84.65
76297;BME280;65104;52.994;6.552;2024-01-30T07:57:57;102385.78;;;7.07;84.68
76297;BME280;65104;52.994;6.552;2024-01-30T08:00:24;102382.25;;;7.07;84.54
76297;BME280;65104;52.994;6.552;2024-01-30T08:02:50;102389.31;;;7.08;84.62
76297;BME280;65104;52.994;6.552;2024-01-30T08:05:20;102388.53;;;7.12;84.42
76297;BME280;65104;52.994;6.552;2024-01-30T08:07:47;102394.78;;;7.15;84.40
76297;BME280;65104;52.994;6.552;2024-01-30T08:10:15;102386.06;;;7.16;84.32
76297;BME280;65104;52.994;6.552;2024-01-30T08:12:43;102388.00;;;7.22;84.11
76297;BME280;65104;52.994;6.552;2024-01-30T08:15:11;102385.50;;;7.27;83.84
76297;BME280;65104;52.994;6.552;2024-01-30T08:17:38;102399.91;;;7.39;83.31
76297;BME280;65104;52.994;6.552;2024-01-30T08:20:06;102401.06;;;7.49;82.93
76297;BME280;65104;52.994;6.552;2024-01-30T08:22:34;102404.56;;;7.48;83.26
76297;BME280;65104;52.994;6.552;2024-01-30T08:25:01;102411.53;;;7.47;83.39
76297;BME280;65104;52.994;6.552;2024-01-30T08:27:28;102417.72;;;7.48;83.12
76297;BME280;65104;52.994;6.552;2024-01-30T08:29:54;102400.31;;;7.53;82.56
76297;BME280;65104;52.994;6.552;2024-01-30T08:32:21;102403.78;;;7.52;82.91
76297;BME280;65104;52.994;6.552;2024-01-30T08:34:48;102401.25;;;7.55;83.10
76297;BME280;65104;52.994;6.552;2024-01-30T08:37:14;102404.72;;;7.54;82.98
76297;BME280;65104;52.994;6.552;2024-01-30T08:39:43;102409.91;;;7.53;82.66
76297;BME280;65104;52.994;6.552;2024-01-30T08:42:09;102409.31;;;7.61;82.95
76297;BME280;65104;52.994;6.552;2024-01-30T08:44:36;102383.13;;;7.66;82.38
76297;BME280;65104;52.994;6.552;2024-01-30T08:47:04;102390.31;;;7.72;82.32
76297;BME280;65104;52.994;6.552;2024-01-30T08:49:31;102398.03;;;7.65;82.74
76297;BME280;65104;52.994;6.552;2024-01-30T08:51:58;102414.78;;;7.69;82.79
76297;BME280;65104;52.994;6.552;2024-01-30T08:54:25;102414.97;;;7.75;82.48
76297;BME280;65104;52.994;6.552;2024-01-30T08:56:53;102417.59;;;7.75;82.63
76297;BME280;65104;52.994;6.552;2024-01-30T08:59:21;102419.66;;;7.85;81.84
76297;BME280;65104;52.994;6.552;2024-01-30T09:01:48;102416.06;;;7.82;82.64
76297;BME280;65104;52.994;6.552;2024-01-30T09:04:14;102429.38;;;7.88;82.51
76297;BME280;65104;52.994;6.552;2024-01-30T09:06:41;102425.09;;;7.92;82.47
76297;BME280;65104;52.994;6.552;2024-01-30T09:09:08;102426.88;;;7.93;82.59
76297;BME280;65104;52.994;6.552;2024-01-30T09:11:35;102429.63;;;7.97;82.76
76297;BME280;65104;52.994;6.552;2024-01-30T09:14:03;102427.41;;;8.13;81.89
76297;BME280;65104;52.994;6.552;2024-01-30T09:16:29;102429.06;;;8.09;82.00
76297;BME280;65104;52.994;6.552;2024-01-30T09:18:56;102445.00;;;8.14;81.76
76297;BME280;65104;52.994;6.552;2024-01-30T09:21:23;102438.94;;;8.16;82.01
76297;BME280;65104;52.994;6.552;2024-01-30T09:23:49;102434.59;;;8.18;82.33
76297;BME280;65104;52.994;6.552;2024-01-30T09:26:16;102437.44;;;8.26;81.72
76297;BME280;65104;52.994;6.552;2024-01-30T09:28:43;102432.38;;;8.33;81.86
76297;BME280;65104;52.994;6.552;2024-01-30T09:31:11;102440.50;;;8.41;81.39
76297;BME280;65104;52.994;6.552;2024-01-30T09:33:38;102444.06;;;8.43;81.55
76297;BME280;65104;52.994;6.552;2024-01-30T09:36:06;102430.97;;;8.46;81.85
76297;BME280;65104;52.994;6.552;2024-01-30T09:38:32;102431.94;;;8.50;81.80
76297;BME280;65104;52.994;6.552;2024-01-30T09:41:03;102431.25;;;8.57;80.95
76297;BME280;65104;52.994;6.552;2024-01-30T09:43:35;102444.66;;;8.66;80.90
76297;BME280;65104;52.994;6.552;2024-01-30T09:46:05;102433.44;;;8.75;81.21
76297;BME280;65104;52.994;6.552;2024-01-30T09:48:33;102437.25;;;8.86;81.30
76297;BME280;65104;52.994;6.552;2024-01-30T09:51:01;102433.91;;;8.93;80.97
76297;BME280;65104;52.994;6.552;2024-01-30T09:53:28;102435.91;;;9.04;80.47
76297;BME280;65104;52.994;6.552;2024-01-30T09:55:55;102435.84;;;9.01;80.92
76297;BME280;65104;52.994;6.552;2024-01-30T09:58:22;102438.59;;;9.05;81.35
76297;BME280;65104;52.994;6.552;2024-01-30T10:00:49;102434.31;;;9.10;81.29
76297;BME280;65104;52.994;6.552;2024-01-30T10:03:15;102425.63;;;9.16;81.24
76297;BME280;65104;52.994;6.552;2024-01-30T10:05:46;102433.38;;;9.08;81.28
76297;BME280;65104;52.994;6.552;2024-01-30T10:08:17;102434.41;;;9.15;80.90
76297;BME280;65104;52.994;6.552;2024-01-30T10:10:46;102439.03;;;9.24;80.58
76297;BME280;65104;52.994;6.552;2024-01-30T10:13:12;102444.47;;;9.33;80.67
76297;BME280;65104;52.994;6.552;2024-01-30T10:15:39;102424.31;;;9.35;80.41
76297;BME280;65104;52.994;6.552;2024-01-30T10:18:06;102422.69;;;9.42;80.33
76297;BME280;65104;52.994;6.552;2024-01-30T10:20:33;102427.31;;;9.52;81.02
76297;BME280;65104;52.994;6.552;2024-01-30T10:23:02;102415.19;;;9.60;79.72
76297;BME280;65104;52.994;6.552;2024-01-30T10:25:29;102411.56;;;9.56;81.11
76297;BME280;65104;52.994;6.552;2024-01-30T10:27:57;102421.56;;;9.71;80.76
76297;BME280;65104;52.994;6.552;2024-01-30T10:30:23;102418.13;;;9.75;80.64
76297;BME280;65104;52.994;6.552;2024-01-30T10:32:50;102419.06;;;9.77;80.26
76297;BME280;65104;52.994;6.552;2024-01-30T10:35:17;102409.47;;;9.82;80.09
76297;BME280;65104;52.994;6.552;2024-01-30T10:37:47;102412.06;;;9.81;79.94
76297;BME280;65104;52.994;6.552;2024-01-30T10:40:15;102431.63;;;9.89;80.06
76297;BME280;65104;52.994;6.552;2024-01-30T10:42:43;102441.22;;;9.86;79.79
76297;BME280;65104;52.994;6.552;2024-01-30T10:45:11;102429.88;;;9.90;79.96
76297;BME280;65104;52.994;6.552;2024-01-30T10:47:40;102434.22;;;9.88;79.84
76297;BME280;65104;52.994;6.552;2024-01-30T10:50:08;102433.13;;;9.78;79.96
76297;BME280;65104;52.994;6.552;2024-01-30T10:52:36;102434.94;;;9.79;80.47
76297;BME280;65104;52.994;6.552;2024-01-30T10:55:04;102437.50;;;9.76;79.63
76297;BME280;65104;52.994;6.552;2024-01-30T10:57:34;102437.59;;;9.80;80.37
76297;BME280;65104;52.994;6.552;2024-01-30T11:00:02;102438.38;;;9.76;80.47
76297;BME280;65104;52.994;6.552;2024-01-30T11:02:31;102436.59;;;9.75;80.46
76297;BME280;65104;52.994;6.552;2024-01-30T11:04:59;102438.41;;;9.78;80.75
76297;BME280;65104;52.994;6.552;2024-01-30T11:07:27;102437.63;;;9.82;79.85
76297;BME280;65104;52.994;6.552;2024-01-30T11:09:59;102437.00;;;9.94;79.90
76297;BME280;65104;52.994;6.552;2024-01-30T11:12:27;102436.81;;;9.85;80.32
76297;BME280;65104;52.994;6.552;2024-01-30T11:15:07;102432.34;;;9.84;80.30
76297;BME280;65104;52.994;6.552;2024-01-30T11:17:44;102430.56;;;9.81;80.36
76297;BME280;65104;52.994;6.552;2024-01-30T11:20:12;102431.44;;;9.80;80.86
76297;BME280;65104;52.994;6.552;2024-01-30T11:22:44;102429.81;;;9.87;80.82
76297;BME280;65104;52.994;6.552;2024-01-30T11:25:12;102427.22;;;9.90;79.73
76297;BME280;65104;52.994;6.552;2024-01-30T11:27:39;102418.38;;;9.88;80.51
76297;BME280;65104;52.994;6.552;2024-01-30T11:30:08;102425.53;;;9.93;80.42
76297;BME280;65104;52.994;6.552;2024-01-30T11:32:35;102427.31;;;9.94;80.03
76297;BME280;65104;52.994;6.552;2024-01-30T11:35:03;102424.59;;;9.90;80.28
76297;BME280;65104;52.994;6.552;2024-01-30T11:37:31;102426.34;;;9.91;79.87
76297;BME280;65104;52.994;6.552;2024-01-30T11:40:00;102424.63;;;9.93;79.72
76297;BME280;65104;52.994;6.552;2024-01-30T11:42:28;102427.41;;;9.99;79.34
76297;BME280;65104;52.994;6.552;2024-01-30T11:44:56;102429.13;;;9.97;79.02
76297;BME280;65104;52.994;6.552;2024-01-30T11:47:44;102422.13;;;10.00;80.03
76297;BME280;65104;52.994;6.552;2024-01-30T11:50:46;102421.25;;;10.00;79.63
76297;BME280;65104;52.994;6.552;2024-01-30T11:53:18;102431.97;;;10.08;79.13
76297;BME280;65104;52.994;6.552;2024-01-30T11:55:49;102435.53;;;10.10;78.95
76297;BME280;65104;52.994;6.552;2024-01-30T11:58:16;102441.53;;;10.01;79.35
76297;BME280;65104;52.994;6.552;2024-01-30T12:00:43;102435.03;;;9.85;80.64
76297;BME280;65104;52.994;6.552;2024-01-30T12:03:20;102439.31;;;9.78;80.09
76297;BME280;65104;52.994;6.552;2024-01-30T12:05:46;102444.53;;;9.75;80.79
76297;BME280;65104;52.994;6.552;2024-01-30T12:08:15;102445.16;;;9.62;80.30
76297;BME280;65104;52.994;6.552;2024-01-30T12:10:41;102451.06;;;9.52;80.65
76297;BME280;65104;52.994;6.552;2024-01-30T12:13:08;102443.69;;;9.37;79.67
76297;BME280;65104;52.994;6.552;2024-01-30T12:15:35;102441.88;;;9.34;79.51
76297;BME280;65104;52.994;6.552;2024-01-30T12:18:06;102455.03;;;9.31;79.00
76297;BME280;65104;52.994;6.552;2024-01-30T12:20:34;102453.31;;;9.33;79.84
76297;BME280;65104;52.994;6.552;2024-01-30T12:23:01;102449.94;;;9.41;79.22
76297;BME280;65104;52.994;6.552;2024-01-30T12:25:27;102445.97;;;9.61;77.37
76297;BME280;65104;52.994;6.552;2024-01-30T12:27:54;102454.16;;;9.73;76.10
76297;BME280;65104;52.994;6.552;2024-01-30T12:30:21;102443.66;;;9.76;77.30
76297;BME280;65104;52.994;6.552;2024-01-30T12:32:50;102448.94;;;9.76;75.83
76297;BME280;65104;52.994;6.552;2024-01-30T12:35:18;102457.13;;;9.89;74.85
76297;BME280;65104;52.994;6.552;2024-01-30T12:37:47;102453.47;;;9.84;75.54
76297;BME280;65104;52.994;6.552;2024-01-30T12:40:14;102470.81;;;9.69;75.93
76297;BME280;65104;52.994;6.552;2024-01-30T12:42:41;102465.53;;;9.69;75.81
76297;BME280;65104;52.994;6.552;2024-01-30T12:45:08;102458.41;;;9.67;74.84
76297;BME280;65104;52.994;6.552;2024-01-30T12:47:35;102461.97;;;9.67;75.92
76297;BME280;65104;52.994;6.552;2024-01-30T12:50:02;102450.53;;;9.68;74.70
76297;BME280;65104;52.994;6.552;2024-01-30T12:52:30;102452.84;;;9.53;74.40
76297;BME280;65104;52.994;6.552;2024-01-30T12:54:58;102470.13;;;9.40;73.80
76297;BME280;65104;52.994;6.552;2024-01-30T12:57:24;102460.19;;;9.28;73.57
76297;BME280;65104;52.994;6.552;2024-01-30T12:59:51;102448.00;;;9.32;74.29
76297;BME280;65104;52.994;6.552;2024-01-30T13:02:18;102452.22;;;9.25;74.87